Time;durP1;ratioP1;P1;durP2;ratioP2;P2;SDS_P1;SDS_P2;PMS_P1;PMS_P2;Temp;Humidity;BMP_temperature;BMP_pressure;BME280_temperature;BME280_humidity;BME280_pressure;Samples;Min_cycle;Max_cycle;Signal;HPM_P1;HPM_P2
2023/04/10 00:00:18;;;;;;;;;;;;;;;-144.99;100.00;52468.47;4980990;28;19981;-71
2023/04/10 00:02:46;;;;;;;;;;;;;;;-144.99;100.00;52450.13;4983021;28;20415;-72
2023/04/10 00:05:12;;;;;;;;;;;;;;;-144.99;100.00;52415.47;4983381;28;20014;-70
2023/04/10 00:07:40;;;;;;;;;;;;;;;-144.99;100.00;52450.13;4982505;28;19968;-70
2023/04/10 00:10:07;;;;;;;;;;;;;;;-144.99;100.00;52358.41;4981365;28;19940;-69
2023/04/10 00:12:35;;;;;;;;;;;;;;;-144.99;100.00;52423.63;4984614;28;19944;-70
2023/04/10 00:15:03;;;;;;;;;;;;;;;-144.99;100.00;52411.41;4982583;28;19944;-69
2023/04/10 00:17:29;;;;;;;;;;;;;;;-144.99;100.00;52415.47;4983489;28;19930;-63
2023/04/10 00:19:58;;;;;;;;;;;;;;;-144.99;100.00;52370.63;4983169;28;19977;-63
2023/04/10 00:22:24;;;;;;;;;;;;;;;-144.99;100.00;52368.59;4978363;28;19930;-63
2023/04/10 00:24:52;;;;;;;;;;;;;;;-144.99;100.00;52460.31;4982611;28;19936;-64
2023/04/10 00:27:18;;;;;;;;;;;;;;;-144.99;100.00;52415.47;4980529;28;20394;-63
2023/04/10 00:29:45;;;;;;;;;;;;;;;-144.99;100.00;52431.78;4982804;28;19950;-63
2023/04/10 00:32:11;;;;;;;;;;;;;;;-144.99;100.00;52423.63;4982755;28;20004;-65
2023/04/10 00:34:38;;;;;;;;;;;;;;;-144.99;100.00;52419.56;4983579;28;20875;-66
2023/04/10 00:37:05;;;;;;;;;;;;;;;-144.99;100.00;52395.09;4984301;28;20016;-66
2023/04/10 00:39:31;;;;;;;;;;;;;;;-144.99;100.00;52374.72;4985781;28;19959;-63
2023/04/10 00:42:00;;;;;;;;;;;;;;;-144.99;100.00;52415.47;4982999;28;19975;-67
2023/04/10 00:44:27;;;;;;;;;;;;;;;-144.99;100.00;52411.41;4984454;28;20007;-66
2023/04/10 00:46:53;;;;;;;;;;;;;;;-144.99;100.00;52448.09;4982578;28;20445;-66
2023/04/10 00:49:20;;;;;;;;;;;;;;;-144.99;100.00;52415.47;4981228;28;20079;-72
2023/04/10 00:51:47;;;;;;;;;;;;;;;-144.99;100.00;52431.78;4982191;28;19948;-67
2023/04/10 00:54:14;;;;;;;;;;;;;;;-144.99;100.00;52395.09;4982567;28;19991;-69
2023/04/10 00:56:41;;;;;;;;;;;;;;;-144.99;100.00;52407.31;4982120;28;19962;-68
2023/04/10 00:59:09;;;;;;;;;;;;;;;-144.99;100.00;52415.47;4983970;28;20052;-70
2023/04/10 01:01:35;;;;;;;;;;;;;;;-144.99;100.00;52415.47;4983969;28;19936;-68
2023/04/10 01:04:02;;;;;;;;;;;;;;;-144.99;100.00;52403.25;4983188;28;19941;-71
2023/04/10 01:06:35;;;;;;;;;;;;;;;-144.99;100.00;52391.03;4982733;28;20632;-67
2023/04/10 01:09:05;;;;;;;;;;;;;;;-144.99;100.00;52423.63;4978650;28;19979;-67
2023/04/10 01:11:38;;;;;;;;;;;;;;;-144.99;100.00;52444.03;4983551;28;19940;-66
2023/04/10 01:14:07;;;;;;;;;;;;;;;-144.99;100.00;52386.94;4982497;28;19944;-69
2023/04/10 01:16:36;;;;;;;;;;;;;;;-144.99;100.00;52391.03;4981486;28;20047;-67
2023/04/10 01:19:07;;;;;;;;;;;;;;;-144.99;100.00;52407.31;4980372;28;20020;-71
2023/04/10 01:21:35;;;;;;;;;;;;;;;-144.99;100.00;52395.09;4981467;28;20406;-72
2023/04/10 01:24:16;;;;;;;;;;;;;;;-144.99;100.00;52399.19;4982231;28;20049;-71
2023/04/10 01:26:52;;;;;;;;;;;;;;;-144.99;100.00;52362.50;4990752;28;20019;-71
2023/04/10 01:29:21;;;;;;;;;;;;;;;-144.99;100.00;52382.88;4990409;28;20028;-72
2023/04/10 01:31:52;;;;;;;;;;;;;;;-144.99;100.00;52382.88;4980464;28;19979;-71
2023/04/10 01:34:20;;;;;;;;;;;;;;;-144.99;100.00;52415.47;4984634;28;19940;-70
2023/04/10 01:36:49;;;;;;;;;;;;;;;-144.99;100.00;52460.31;4981728;28;20024;-70
2023/04/10 01:39:18;;;;;;;;;;;;;;;-144.99;100.00;52431.78;4983081;28;19961;-70
2023/04/10 01:41:45;;;;;;;;;;;;;;;-144.99;100.00;52399.19;4981212;28;19992;-69
2023/04/10 01:44:14;;;;;;;;;;;;;;;-144.99;100.00;52423.63;4983583;28;20372;-67
2023/04/10 01:46:43;;;;;;;;;;;;;;;-144.99;100.00;52444.03;4982783;28;19963;-67
2023/04/10 01:49:10;;;;;;;;;;;;;;;-144.99;100.00;52407.31;4980580;28;20395;-69
2023/04/10 01:51:37;;;;;;;;;;;;;;;-144.99;100.00;52407.31;4982437;28;20004;-69
2023/04/10 01:54:04;;;;;;;;;;;;;;;-144.99;100.00;52425.66;4984700;28;19948;-69
2023/04/10 01:56:32;;;;;;;;;;;;;;;-144.99;100.00;52391.03;4984789;28;20427;-70
2023/04/10 01:58:59;;;;;;;;;;;;;;;-144.99;100.00;52409.38;4985273;28;19929;-70
2023/04/10 02:01:26;;;;;;;;;;;;;;;-144.99;100.00;52421.59;4982555;28;19965;-70
2023/04/10 02:03:54;;;;;;;;;;;;;;;-144.99;100.00;52437.91;4982930;28;20394;-70
2023/04/10 02:06:27;;;;;;;;;;;;;;;-144.99;100.00;52409.38;4985537;28;19996;-70
2023/04/10 02:08:56;;;;;;;;;;;;;;;-144.99;100.00;52399.19;4984541;28;19945;-69
2023/04/10 02:11:29;;;;;;;;;;;;;;;-144.99;100.00;52417.53;4639703;28;9999917;-70
2023/04/10 02:13:59;;;;;;;;;;;;;;;-144.99;100.00;52444.03;4982987;28;19980;-70
2023/04/10 02:16:26;;;;;;;;;;;;;;;-144.99;100.00;52403.25;4983891;28;19938;-70
2023/04/10 02:18:54;;;;;;;;;;;;;;;-144.99;100.00;52435.88;4982312;28;19951;-71
2023/04/10 02:21:21;;;;;;;;;;;;;;;-144.99;100.00;52388.97;4985339;28;20001;-64
2023/04/10 02:23:47;;;;;;;;;;;;;;;-144.99;100.00;52429.75;4984006;28;19942;-62
2023/04/10 02:26:14;;;;;;;;;;;;;;;-144.99;100.00;52448.09;4983343;28;19960;-67
2023/04/10 02:28:41;;;;;;;;;;;;;;;-144.99;100.00;52431.78;4982930;28;19963;-65
2023/04/10 02:31:07;;;;;;;;;;;;;;;-144.99;100.00;52407.31;4985748;28;20449;-65
2023/04/10 02:33:34;;;;;;;;;;;;;;;-144.99;100.00;52435.88;4982705;28;19944;-64
2023/04/10 02:36:02;;;;;;;;;;;;;;;-144.99;100.00;52444.03;4983766;28;19996;-65
2023/04/10 02:38:29;;;;;;;;;;;;;;;-144.99;100.00;52431.78;4984032;28;19952;-65
2023/04/10 02:40:56;;;;;;;;;;;;;;;-144.99;100.00;52403.25;4983750;28;19944;-65
2023/04/10 02:43:22;;;;;;;;;;;;;;;-144.99;100.00;52407.31;4984428;28;19994;-65
2023/04/10 02:45:49;;;;;;;;;;;;;;;-144.99;100.00;52419.56;4982232;28;19956;-64
2023/04/10 02:48:15;;;;;;;;;;;;;;;-144.99;100.00;52411.41;4983290;28;19970;-64
2023/04/10 02:50:44;;;;;;;;;;;;;;;-144.99;100.00;52409.38;4982376;28;20337;-69
2023/04/10 02:53:13;;;;;;;;;;;;;;;-144.99;100.00;52399.19;4981782;28;19983;-70
2023/04/10 02:55:40;;;;;;;;;;;;;;;-144.99;100.00;52423.63;4982781;28;19960;-70
2023/04/10 02:58:07;;;;;;;;;;;;;;;-144.99;100.00;52423.63;4978897;28;19970;-65
2023/04/10 03:00:33;;;;;;;;;;;;;;;-144.99;100.00;52439.94;4985966;28;19986;-66
2023/04/10 03:03:00;;;;;;;;;;;;;;;-144.99;100.00;52391.03;4984601;28;20361;-65
2023/04/10 03:05:27;;;;;;;;;;;;;;;-144.99;100.00;52423.63;4983195;28;19980;-65
2023/04/10 03:07:54;;;;;;;;;;;;;;;-144.99;100.00;52419.56;4983375;28;19971;-68
2023/04/10 03:10:23;;;;;;;;;;;;;;;-144.99;100.00;52399.19;4984507;28;19975;-66
2023/04/10 03:12:49;;;;;;;;;;;;;;;-144.99;100.00;52395.09;4983920;28;19980;-70
2023/04/10 03:15:16;;;;;;;;;;;;;;;-144.99;100.00;52419.56;4985369;28;19961;-70
2023/04/10 03:17:43;;;;;;;;;;;;;;;-144.99;100.00;52407.31;4985707;28;19936;-70
2023/04/10 03:20:10;;;;;;;;;;;;;;;-144.99;99.10;52395.09;4987903;28;19938;-71
2023/04/10 03:22:36;;;;;;;;;;;;;;;-144.99;99.31;52384.91;4985303;28;19944;-70
2023/04/10 03:25:03;;;;;;;;;;;;;;;-144.99;100.00;52413.44;4990668;28;19936;-70
2023/04/10 03:27:33;;;;;;;;;;;;;;;-144.99;99.04;52407.31;4994249;28;19987;-71
2023/04/10 03:30:00;;;;;;;;;;;;;;;-144.99;98.88;52407.31;4991884;28;19936;-71
2023/04/10 03:32:29;;;;;;;;;;;;;;;-144.99;98.92;52401.22;4993563;28;19962;-71
2023/04/10 03:34:56;;;;;;;;;;;;;;;-144.99;97.86;52403.25;5001691;28;20025;-71
2023/04/10 03:37:23;;;;;;;;;;;;;;;-144.99;99.91;52427.72;4997962;28;19962;-71
2023/04/10 03:39:49;;;;;;;;;;;;;;;-144.99;98.14;52423.63;4990436;28;20055;-72
2023/04/10 03:42:16;;;;;;;;;;;;;;;-144.99;98.11;52391.03;4989649;28;20063;-68
2023/04/10 03:44:43;;;;;;;;;;;;;;;-144.99;98.49;52415.47;4984146;28;20004;-68
2023/04/10 03:47:10;;;;;;;;;;;;;;;-144.99;98.02;52427.72;4986371;28;20040;-68
2023/04/10 03:49:37;;;;;;;;;;;;;;;-144.99;97.72;52435.88;4986111;28;19937;-68
2023/04/10 03:52:04;;;;;;;;;;;;;;;-144.99;98.11;52386.94;4987166;28;19933;-67
2023/04/10 03:54:30;;;;;;;;;;;;;;;-144.99;98.01;52378.78;4988405;28;19932;-67
2023/04/10 03:56:57;;;;;;;;;;;;;;;-144.99;97.60;52399.19;4986331;28;19962;-67
2023/04/10 03:59:23;;;;;;;;;;;;;;;-144.99;97.41;52397.13;4983479;28;20434;-68
2023/04/10 04:01:51;;;;;;;;;;;;;;;-144.99;96.75;52415.47;4983422;28;20449;-67
2023/04/10 04:04:18;;;;;;;;;;;;;;;-144.99;95.30;52427.72;4986540;28;20039;-66
2023/04/10 04:06:44;;;;;;;;;;;;;;;-144.99;95.06;52358.41;4985879;28;20047;-68
2023/04/10 04:09:11;;;;;;;;;;;;;;;-144.99;96.61;52415.47;4986579;28;20379;-67
2023/04/10 04:11:38;;;;;;;;;;;;;;;-144.99;97.10;52407.31;4984729;28;20011;-69
2023/04/10 04:14:04;;;;;;;;;;;;;;;-144.99;96.66;52415.47;4983337;28;20186;-71
2023/04/10 04:16:31;;;;;;;;;;;;;;;-144.99;96.87;52419.56;4987509;28;19960;-68
2023/04/10 04:18:59;;;;;;;;;;;;;;;-144.99;97.36;52419.56;4986513;28;19964;-70
2023/04/10 04:21:26;;;;;;;;;;;;;;;-144.99;97.13;52456.25;4984812;28;20079;-73
2023/04/10 04:23:54;;;;;;;;;;;;;;;-144.99;95.17;52407.31;4987178;28;20039;-75
2023/04/10 04:26:20;;;;;;;;;;;;;;;-144.99;96.75;52452.16;4985027;28;20722;-75
2023/04/10 04:28:47;;;;;;;;;;;;;;;-144.99;98.78;52413.44;4981529;28;20066;-74
2023/04/10 04:31:14;;;;;;;;;;;;;;;-144.99;99.39;52403.25;4986568;28;19936;-74
2023/04/10 04:33:40;;;;;;;;;;;;;;;-144.99;97.98;52407.31;4985742;28;19963;-74
2023/04/10 04:36:09;;;;;;;;;;;;;;;-144.99;97.41;52388.97;4986704;28;20081;-71
2023/04/10 04:38:35;;;;;;;;;;;;;;;-144.99;96.92;52382.88;4985458;28;20388;-74
2023/04/10 04:41:02;;;;;;;;;;;;;;;-144.99;97.66;52415.47;4986405;28;20003;-70
2023/04/10 04:43:28;;;;;;;;;;;;;;;-144.99;99.79;52391.03;4985242;28;19936;-70
2023/04/10 04:45:55;;;;;;;;;;;;;;;-144.99;99.18;52435.88;4985700;28;20103;-68
2023/04/10 04:48:22;;;;;;;;;;;;;;;-144.99;97.87;52403.25;4987555;28;19936;-67
2023/04/10 04:50:48;;;;;;;;;;;;;;;-144.99;97.56;52439.94;4986046;28;19983;-68
2023/04/10 04:53:16;;;;;;;;;;;;;;;-144.99;97.64;52399.19;4985895;28;19944;-67
2023/04/10 04:55:42;;;;;;;;;;;;;;;-144.99;97.06;52403.25;4986559;28;19996;-67
2023/04/10 04:58:09;;;;;;;;;;;;;;;-144.99;96.71;52437.91;4984914;28;20430;-67
2023/04/10 05:00:35;;;;;;;;;;;;;;;-144.99;97.13;52419.56;4982876;28;19983;-67
2023/04/10 05:03:02;;;;;;;;;;;;;;;-144.99;96.09;52378.78;4982374;28;20201;-67
2023/04/10 05:05:28;;;;;;;;;;;;;;;-144.99;95.55;52407.31;4983264;28;19934;-66
2023/04/10 05:07:55;;;;;;;;;;;;;;;-144.99;96.60;52427.72;4984489;28;20030;-66
2023/04/10 05:10:23;;;;;;;;;;;;;;;-144.99;97.39;52399.19;4985796;28;20069;-66
2023/04/10 05:12:49;;;;;;;;;;;;;;;-144.99;98.85;52386.94;4983020;28;19975;-66
2023/04/10 05:15:16;;;;;;;;;;;;;;;-144.99;99.01;52419.56;4984877;28;19980;-67
2023/04/10 05:17:43;;;;;;;;;;;;;;;-144.99;98.89;52415.47;4984620;28;19996;-67
2023/04/10 05:20:10;;;;;;;;;;;;;;;-144.99;95.88;52423.63;4985176;28;19972;-67
2023/04/10 05:22:36;;;;;;;;;;;;;;;-144.99;95.75;52423.63;4984740;28;19948;-66
2023/04/10 05:25:03;;;;;;;;;;;;;;;-144.99;94.31;52401.22;4985391;28;20440;-67
2023/04/10 05:27:31;;;;;;;;;;;;;;;-144.99;93.34;52374.72;4984500;28;20012;-67
2023/04/10 05:29:57;;;;;;;;;;;;;;;-144.99;92.93;52407.31;4995635;28;19926;-69
2023/04/10 05:32:24;;;;;;;;;;;;;;;-144.99;93.48;52360.44;4983310;28;19987;-66
2023/04/10 05:34:50;;;;;;;;;;;;;;;-144.99;92.50;52397.13;4983408;28;19942;-67
2023/04/10 05:37:17;;;;;;;;;;;;;;;-144.99;92.09;52395.09;4986656;28;20388;-66
2023/04/10 05:39:43;;;;;;;;;;;;;;;-144.99;92.25;52415.47;4982421;28;19941;-67
2023/04/10 05:42:10;;;;;;;;;;;;;;;-144.99;91.62;52397.13;4985065;28;19933;-66
2023/04/10 05:44:38;;;;;;;;;;;;;;;-144.99;93.28;52403.25;4985523;28;19941;-67
2023/04/10 05:47:04;;;;;;;;;;;;;;;-144.99;92.92;52403.25;4984682;28;20370;-68
2023/04/10 05:49:31;;;;;;;;;;;;;;;-144.99;92.43;52384.91;4984140;28;19940;-67
2023/04/10 05:51:57;;;;;;;;;;;;;;;-144.99;91.62;52354.34;4984815;28;20042;-68
2023/04/10 05:54:24;;;;;;;;;;;;;;;-144.99;91.85;52384.91;4984864;28;20016;-61
2023/04/10 05:56:50;;;;;;;;;;;;;;;-144.99;91.18;52391.03;4985098;28;19956;-66
2023/04/10 05:59:17;;;;;;;;;;;;;;;-144.99;91.25;52376.75;4981575;28;20064;-67
2023/04/10 06:01:46;;;;;;;;;;;;;;;-144.99;92.07;52382.88;4982839;28;20003;-67
2023/04/10 06:04:12;;;;;;;;;;;;;;;-144.99;93.25;52423.63;4983129;28;19926;-67
2023/04/10 06:06:39;;;;;;;;;;;;;;;-144.99;93.26;52444.03;4984078;28;20298;-67
2023/04/10 06:09:06;;;;;;;;;;;;;;;-144.99;93.21;52409.38;4984659;28;19944;-69
2023/04/10 06:11:32;;;;;;;;;;;;;;;-144.99;92.72;52382.88;4983355;28;20083;-70
2023/04/10 06:13:59;;;;;;;;;;;;;;;-144.99;92.86;52407.31;4981257;28;19944;-69
2023/04/10 06:16:25;;;;;;;;;;;;;;;-144.99;92.18;52415.47;4984458;28;19987;-69
2023/04/10 06:18:54;;;;;;;;;;;;;;;-144.99;91.63;52374.72;4982465;28;20373;-69
2023/04/10 06:21:20;;;;;;;;;;;;;;;-144.99;91.91;52382.88;4982025;28;19943;-70
2023/04/10 06:23:47;;;;;;;;;;;;;;;-144.99;91.65;52417.53;4983459;28;20426;-71
2023/04/10 06:26:13;;;;;;;;;;;;;;;-144.99;91.33;52419.56;4989190;28;19952;-71
2023/04/10 06:28:41;;;;;;;;;;;;;;;-144.99;90.00;52348.22;4991463;28;20472;-72
2023/04/10 06:31:07;;;;;;;;;;;;;;;-144.99;88.23;52378.78;4993263;28;20313;-74
2023/04/10 06:33:35;;;;;;;;;;;;;;;-144.99;88.95;52421.59;5002213;28;20010;-67
2023/04/10 06:36:03;;;;;;;;;;;;;;;-144.99;89.90;52386.94;4984978;28;20460;-66
2023/04/10 06:38:32;;;;;;;;;;;;;;;-144.99;89.86;52427.72;4981954;28;20283;-66
2023/04/10 06:40:59;;;;;;;;;;;;;;;-144.99;89.39;52411.41;4984196;28;19936;-66
2023/04/10 06:43:26;;;;;;;;;;;;;;;-144.99;88.60;52386.94;4983739;28;19953;-65
2023/04/10 06:45:53;;;;;;;;;;;;;;;-144.99;88.62;52338.03;4981419;28;19963;-65
2023/04/10 06:48:19;;;;;;;;;;;;;;;-144.99;88.21;52382.88;4983344;28;19989;-64
2023/04/10 06:50:46;;;;;;;;;;;;;;;-144.99;88.10;52419.56;4988683;28;19964;-69
2023/04/10 06:53:14;;;;;;;;;;;;;;;-144.99;86.58;52407.31;4988872;28;19971;-69
2023/04/10 06:55:40;;;;;;;;;;;;;;;-144.99;87.26;52407.31;4983464;28;19926;-68
2023/04/10 06:58:07;;;;;;;;;;;;;;;-144.99;87.33;52362.50;4984016;28;19971;-69
2023/04/10 07:00:33;;;;;;;;;;;;;;;-144.99;87.18;52374.72;4984995;28;19994;-67
2023/04/10 07:03:00;;;;;;;;;;;;;;;-144.99;86.70;52370.63;4981862;28;19936;-64
2023/04/10 07:05:27;;;;;;;;;;;;;;;-144.99;86.50;52399.19;4983367;28;20308;-63
2023/04/10 07:07:53;;;;;;;;;;;;;;;-144.99;85.84;52378.78;4981777;28;20491;-64
2023/04/10 07:10:21;;;;;;;;;;;;;;;-144.99;85.28;52388.97;4985816;28;19933;-64
2023/04/10 07:12:48;;;;;;;;;;;;;;;-144.99;84.76;52391.03;4983390;28;19934;-65
2023/04/10 07:15:15;;;;;;;;;;;;;;;-144.99;84.22;52350.25;4982939;28;20035;-65
2023/04/10 07:17:41;;;;;;;;;;;;;;;-144.99;83.98;52370.63;4983491;28;19940;-64
2023/04/10 07:20:08;;;;;;;;;;;;;;;-144.99;84.39;52378.78;4978168;28;20011;-64
2023/04/10 07:22:35;;;;;;;;;;;;;;;-144.99;83.97;52356.38;4980498;28;20010;-64
2023/04/10 07:25:01;;;;;;;;;;;;;;;-144.99;83.26;52346.19;4984766;28;20024;-65
2023/04/10 07:27:29;;;;;;;;;;;;;;;-144.99;82.00;52346.19;4989730;28;19956;-65
2023/04/10 07:29:56;;;;;;;;;;;;;;;-144.99;82.18;52374.72;4990212;28;20417;-65
2023/04/10 07:32:23;;;;;;;;;;;;;;;-144.99;81.59;52356.38;4984807;28;19964;-64
2023/04/10 07:34:49;;;;;;;;;;;;;;;-144.99;81.21;52362.50;4981978;28;20545;-66
2023/04/10 07:37:16;;;;;;;;;;;;;;;-144.99;79.95;52370.63;4983442;28;19949;-65
2023/04/10 07:39:43;;;;;;;;;;;;;;;-144.99;79.25;52336.00;4980615;28;20036;-66
2023/04/10 07:42:10;;;;;;;;;;;;;;;-144.99;78.99;52331.91;4985768;28;19961;-65
2023/04/10 07:44:38;;;;;;;;;;;;;;;-144.99;78.46;52354.34;4983944;28;19951;-67
2023/04/10 07:47:04;;;;;;;;;;;;;;;-144.99;78.27;52366.56;4983987;28;20075;-65
2023/04/10 07:49:30;;;;;;;;;;;;;;;-144.99;78.07;52368.59;4981998;28;20461;-65
2023/04/10 07:51:57;;;;;;;;;;;;;;;-144.99;77.01;52321.72;4991030;28;19961;-64
2023/04/10 07:54:24;;;;;;;;;;;;;;;-144.99;76.54;52354.34;4990663;28;19926;-63
2023/04/10 07:56:51;;;;;;;;;;;;;;;-144.99;76.56;52305.41;4987215;28;20284;-64
2023/04/10 07:59:18;;;;;;;;;;;;;;;-144.99;76.19;52350.25;4982576;28;20313;-64
2023/04/10 08:01:46;;;;;;;;;;;;;;;-144.99;75.74;52325.81;4989975;28;19925;-64
2023/04/10 08:04:12;;;;;;;;;;;;;;;-144.99;75.29;52331.91;4994055;28;19925;-64
2023/04/10 08:06:39;;;;;;;;;;;;;;;-144.99;75.12;52321.72;4995135;28;19969;-64
2023/04/10 08:09:05;;;;;;;;;;;;;;;-144.99;74.65;52346.19;4996801;28;19949;-64
2023/04/10 08:11:33;;;;;;;;;;;;;;;-144.99;73.98;52309.50;4995967;28;19972;-64
2023/04/10 08:14:01;;;;;;;;;;;;;;;-144.99;74.13;52333.94;5000455;28;19973;-64
2023/04/10 08:16:28;;;;;;;;;;;;;;;-144.99;73.79;52362.50;4994121;28;19996;-64
2023/04/10 08:18:57;;;;;;;;;;;;;;;-144.99;73.34;52321.72;4995048;28;19930;-64
2023/04/10 08:21:24;;;;;;;;;;;;;;;-144.99;73.12;52374.72;4999108;28;20280;-64
2023/04/10 08:23:51;;;;;;;;;;;;;;;-144.99;72.65;52325.81;4996415;28;19930;-64
2023/04/10 08:26:19;;;;;;;;;;;;;;;-144.99;71.87;52354.34;4994600;28;19980;-66
2023/04/10 08:28:48;;;;;;;;;;;;;;;-144.99;71.78;52356.38;4997284;28;19926;-66
2023/04/10 08:31:14;;;;;;;;;;;;;;;-144.99;71.63;52313.56;4993995;28;19930;-65
2023/04/10 08:33:41;;;;;;;;;;;;;;;-144.99;71.34;52362.50;4977873;28;20024;-66
2023/04/10 08:36:11;;;;;;;;;;;;;;;-144.99;71.32;52317.66;4989862;28;19925;-66
2023/04/10 08:38:37;;;;;;;;;;;;;;;-144.99;71.53;52327.84;4989962;28;19952;-69
2023/04/10 08:41:04;;;;;;;;;;;;;;;-144.99;71.07;52323.75;4999779;28;19925;-68
2023/04/10 08:43:31;;;;;;;;;;;;;;;-144.99;71.03;52317.66;4995441;28;19925;-68
2023/04/10 08:45:58;;;;;;;;;;;;;;;-144.99;70.83;52313.56;4998099;28;20003;-68
2023/04/10 08:48:29;;;;;;;;;;;;;;;-144.99;70.62;52311.53;4984241;28;19972;-67
2023/04/10 08:50:59;;;;;;;;;;;;;;;-144.99;70.73;52260.56;4998983;28;19930;-69
2023/04/10 08:53:28;;;;;;;;;;;;;;;-144.99;70.41;52333.94;4977293;28;20402;-66
2023/04/10 08:55:55;;;;;;;;;;;;;;;-144.99;70.35;52309.50;4992380;28;19929;-66
2023/04/10 08:58:22;;;;;;;;;;;;;;;-144.99;70.25;52299.31;4989006;28;19949;-66
2023/04/10 09:00:49;;;;;;;;;;;;;;;-144.99;70.16;52309.50;4999870;28;19938;-66
2023/04/10 09:03:16;;;;;;;;;;;;;;;-144.99;69.65;52287.06;4992246;28;20335;-67
2023/04/10 09:05:42;;;;;;;;;;;;;;;-144.99;69.89;52289.13;4992127;28;20016;-67
2023/04/10 09:08:09;;;;;;;;;;;;;;;-144.99;69.37;52291.16;4994196;28;19961;-67
2023/04/10 09:10:38;;;;;;;;;;;;;;;-144.99;69.28;52272.81;4990139;28;19988;-67
2023/04/10 09:13:04;;;;;;;;;;;;;;;-144.99;69.23;52285.03;4992863;28;19926;-67
2023/04/10 09:15:31;;;;;;;;;;;;;;;-144.99;68.91;52278.91;4991831;28;19926;-67
2023/04/10 09:17:59;;;;;;;;;;;;;;;-144.99;68.83;52333.94;4992156;28;20370;-67
2023/04/10 09:20:27;;;;;;;;;;;;;;;-144.99;68.38;52321.72;4988185;28;19937;-67
2023/04/10 09:22:53;;;;;;;;;;;;;;;-144.99;67.93;52260.56;4990983;28;19930;-67
2023/04/10 09:25:33;;;;;;;;;;;;;;;-144.99;67.77;52248.34;4990413;28;19973;-66
2023/04/10 09:28:02;;;;;;;;;;;;;;;-144.99;67.51;52268.72;4983708;28;19929;-66
2023/04/10 09:30:35;;;;;;;;;;;;;;;-144.99;66.75;52252.44;4988381;28;19952;-67
2023/04/10 09:33:02;;;;;;;;;;;;;;;-144.99;66.99;52260.56;4989879;28;20465;-66
2023/04/10 09:35:35;;;;;;;;;;;;;;;-144.99;66.29;52276.88;4989793;28;20000;-67
2023/04/10 09:38:02;;;;;;;;;;;;;;;-144.99;66.07;52262.63;4977125;28;19976;-67
2023/04/10 09:40:29;;;;;;;;;;;;;;;-144.99;66.32;52248.34;4976977;28;19934;-67
2023/04/10 09:42:56;;;;;;;;;;;;;;;-144.99;66.15;52240.19;4980560;28;21344;-67
2023/04/10 09:45:24;;;;;;;;;;;;;;;-144.99;66.22;52240.19;4978992;28;20359;-67
2023/04/10 09:48:04;;;;;;;;;;;;;;;-144.99;65.73;52260.56;4976244;28;19938;-67
2023/04/10 09:50:34;;;;;;;;;;;;;;;-144.99;65.39;52248.34;4977529;28;20084;-68
2023/04/10 09:53:00;;;;;;;;;;;;;;;-144.99;65.16;52211.66;4978195;28;19958;-67
2023/04/10 09:55:28;;;;;;;;;;;;;;;-144.99;64.51;52227.97;4974438;28;19941;-67
2023/04/10 09:57:55;;;;;;;;;;;;;;;-144.99;64.08;52227.97;4974452;28;20304;-67
2023/04/10 10:00:21;;;;;;;;;;;;;;;-144.99;64.07;52260.56;4978304;28;19930;-69
2023/04/10 10:02:50;;;;;;;;;;;;;;;-144.99;64.23;52248.34;4977279;28;19988;-68
2023/04/10 10:05:16;;;;;;;;;;;;;;;-144.99;64.39;52227.97;4974393;28;20012;-68
2023/04/10 10:07:44;;;;;;;;;;;;;;;-144.99;64.01;52268.72;4977165;28;20012;-68
2023/04/10 10:10:12;;;;;;;;;;;;;;;-144.99;63.76;52223.88;4973164;28;20608;-69
2023/04/10 10:12:44;;;;;;;;;;;;;;;-144.99;63.50;52227.97;4974188;28;19933;-69
2023/04/10 10:15:13;;;;;;;;;;;;;;;-144.99;63.15;52207.59;4974696;28;20419;-67
2023/04/10 10:17:43;;;;;;;;;;;;;;;-144.99;62.44;52203.50;4975169;28;21135;-69
2023/04/10 10:20:13;;;;;;;;;;;;;;;-144.99;60.94;52191.28;4977014;28;19987;-67
2023/04/10 10:22:40;;;;;;;;;;;;;;;-144.99;60.16;52240.19;4974303;28;20311;-67
2023/04/10 10:25:07;;;;;;;;;;;;;;;-144.99;61.00;52207.59;4975663;28;19945;-67
2023/04/10 10:27:36;;;;;;;;;;;;;;;-144.99;60.53;52223.88;4978462;28;20002;-67
2023/04/10 10:30:03;;;;;;;;;;;;;;;-144.99;60.23;52211.66;4974172;28;20027;-68
2023/04/10 10:32:30;;;;;;;;;;;;;;;-144.99;60.84;52272.81;4977987;28;20423;-67
2023/04/10 10:34:57;;;;;;;;;;;;;;;-144.99;61.61;52219.81;4977673;28;19967;-68
2023/04/10 10:37:26;;;;;;;;;;;;;;;-144.99;60.83;52170.91;4976579;28;21303;-68
2023/04/10 10:39:57;;;;;;;;;;;;;;;-144.99;60.81;52170.91;4976326;28;19934;-68
2023/04/10 10:42:28;;;;;;;;;;;;;;;-144.99;60.55;52207.59;4978650;28;19940;-67
2023/04/10 10:45:01;;;;;;;;;;;;;;;-144.99;60.24;52126.06;4974371;28;19970;-67
2023/04/10 10:47:28;;;;;;;;;;;;;;;-144.99;59.63;52099.56;4974182;28;19941;-67
2023/04/10 10:49:56;;;;;;;;;;;;;;;-144.99;59.31;52113.84;4974601;28;19940;-68
2023/04/10 10:52:40;;;;;;;;;;;;;;;-144.99;58.94;52113.84;4974623;28;20407;-67
2023/04/10 10:55:24;;;;;;;;;;;;;;;-144.99;58.29;52142.38;4975039;28;19969;-67
2023/04/10 10:57:52;;;;;;;;;;;;;;;-144.99;58.65;52138.28;4975456;28;19969;-69
2023/04/10 11:00:19;;;;;;;;;;;;;;;-144.99;58.52;52081.22;4973821;28;20332;-68
2023/04/10 11:03:06;;;;;;;;;;;;;;;-144.99;58.94;52240.19;4977144;28;20503;-68
2023/04/10 11:05:52;;;;;;;;;;;;;;;-144.99;58.32;52073.06;4982256;28;19934;-67
2023/04/10 11:08:35;;;;;;;;;;;;;;;-144.99;57.53;52113.84;4980778;28;20000;-67
2023/04/10 11:11:03;;;;;;;;;;;;;;;-144.99;57.15;52077.16;4983727;28;19929;-69
2023/04/10 11:13:30;;;;;;;;;;;;;;;-144.99;57.59;52081.22;4980969;28;20609;-69
2023/04/10 11:15:56;;;;;;;;;;;;;;;-144.99;56.93;52075.09;4982765;28;20348;-67
2023/04/10 11:18:38;;;;;;;;;;;;;;;-144.99;57.15;52060.84;4981283;28;20091;-67
2023/04/10 11:21:11;;;;;;;;;;;;;;;-144.99;56.86;52069.00;4982725;28;19930;-67
2023/04/10 11:23:59;;;;;;;;;;;;;;;-144.99;57.04;52105.69;4985759;28;19930;-69
2023/04/10 11:26:40;;;;;;;;;;;;;;;-144.99;57.14;52121.97;4981380;28;20005;-72
2023/04/10 11:29:06;;;;;;;;;;;;;;;-144.99;57.89;52121.97;4982674;28;19973;-69
2023/04/10 11:31:33;;;;;;;;;;;;;;;-144.99;57.55;52113.84;4979686;28;20331;-69
2023/04/10 11:34:01;;;;;;;;;;;;;;;-144.99;57.71;52203.50;4984016;28;19926;-70
2023/04/10 11:36:28;;;;;;;;;;;;;;;-144.99;57.78;52138.28;4979674;28;20027;-70
2023/04/10 11:38:56;;;;;;;;;;;;;;;-144.99;57.51;52097.53;4986319;28;20141;-69
2023/04/10 11:41:27;;;;;;;;;;;;;;;-144.99;56.85;52117.91;4985619;28;19930;-70
2023/04/10 11:43:53;;;;;;;;;;;;;;;-144.99;56.46;52107.72;4988667;28;19930;-69
2023/04/10 11:46:20;;;;;;;;;;;;;;;-144.99;56.56;52138.28;4988468;28;20383;-69
2023/04/10 11:48:46;;;;;;;;;;;;;;;-144.99;56.72;52130.13;4994402;28;19984;-69
2023/04/10 11:51:14;;;;;;;;;;;;;;;-144.99;56.65;52166.81;4990877;28;19980;-68
2023/04/10 11:53:41;;;;;;;;;;;;;;;-144.99;56.49;52142.38;4990955;28;20498;-68
2023/04/10 11:56:16;;;;;;;;;;;;;;;-144.99;56.13;52152.56;4993337;28;19937;-68
2023/04/10 11:58:43;;;;;;;;;;;;;;;-144.99;57.02;52146.44;4992205;28;20593;-68
2023/04/10 12:01:13;;;;;;;;;;;;;;;-144.99;56.81;52170.91;5001709;28;20393;-68
2023/04/10 12:03:40;;;;;;;;;;;;;;;-144.99;56.81;52183.13;4990685;28;19930;-68
2023/04/10 12:06:08;;;;;;;;;;;;;;;-144.99;57.44;52197.41;4997440;28;20394;-68
2023/04/10 12:08:36;;;;;;;;;;;;;;;-144.99;57.40;52172.94;4993941;28;19926;-68
2023/04/10 12:11:02;;;;;;;;;;;;;;;-144.99;57.60;52207.59;4998779;28;19929;-67
2023/04/10 12:13:31;;;;;;;;;;;;;;;-144.99;57.44;52217.78;4995244;28;19929;-67
2023/04/10 12:15:58;;;;;;;;;;;;;;;-144.99;57.04;52215.75;4994204;28;19926;-67
2023/04/10 12:18:25;;;;;;;;;;;;;;;-144.99;57.30;52203.50;4998222;28;19925;-67
2023/04/10 12:20:55;;;;;;;;;;;;;;;-144.99;57.47;52168.84;4995352;28;20326;-68
2023/04/10 12:23:21;;;;;;;;;;;;;;;-144.99;56.80;52170.91;5000088;28;19936;-67
2023/04/10 12:25:48;;;;;;;;;;;;;;;-144.99;57.09;52146.44;4995847;28;20029;-68